Rock Springs Sweetwater County Airport
KRKS : rendu visible

Aérodrome :











RETROUVEZ-NOUS SUR...

 
LOGIN :

S'inscrire | Disclaimer

   EN    FR    IT 

 









Légende :    VFR   VFR Marginal   IFR   IFR Intensif   IFR Très Intensif
Visi : 
Plafond : 
>= 8 km
>= 3000ft
5 à 8 km
1000 à 3000 ft
1500m à 5 km
500 à 1000 ft
800 à 1500m
200 à 500 ft
< 800m
< 200 ft
Symboles :   Orages  Brouillard  Fortes neiges  Fortes précipitations  Vent > 20 kt






- Altitude de l'aérodrome : 6764 ft
- Code IATA : RKS


KRKS - Rock Springs Sweetwater County

DERNIER METAR :
  • 241554Z AUTO 27021G32KT 10SM CLR M07/M12 A3006 RMK AO2 PK WND 29035/1455 SLP219 T10671122

METARs EXPIRÉS :
  • 241454Z AUTO 28023G34KT 10SM CLR M08/M12 A3002 RMK AO2 PK WND 28038/1424 SLP201 T10781122 53020
  • 241354Z AUTO 26023G36KT 10SM CLR M08/M11 A2998 RMK AO2 PK WND 27037/1340 SLP187 T10831111

TAF KRKS
Valide du 24 à 12h jusqu'au 25 à 12h UTC


241131Z 2412/2512 26024G34KT P6SM VCSH BKN050
FM241500 27019G29KT P6SM SCT050 BKN070
FM250100 27016KT P6SM BKN060
FM251000 33011KT P6SM BKN070



MET'MAP, la Météo Aéronautique d'un coup d'oeil ! - Copyright ORBIFLY Décembre 2007 - Disclaimer

ORBIFLY MET'MAP TEAM :

Programmation & Développement : Alexandra Zaïnal
Sur une idée originale de : Baudouin d'Aumeries
Assistance à la programmation : Marc-Olivier Méhu
Soutien technique & logistique : Manuel Goepfert

Contact : metmap@orbifly.com




SOURCES & CREDITS :

   NOAA       Earth
Advisory